Sidney Richland Municipal Airport Sidney US
ICAO: KSDY
IATA: SDY
Category: Medium
Scheduled Services: No

Elevation: 1985 ft
TransAlt. 18000 ft.

Airport Communications:
AWOS 3:119.275
GREAT FALLS RDO:123.65
CTAF/UNICOM:122.8

KSDY Zoom In..

If you have problems with the map follow the link
https://www.worldairports.se/pages/airport.php?
ICAO=KSDY

Runways:

(A) RW 01 length 5705 ft width 100 ft
---- / hdg 15

(B) RW 11 length 4023 ft width 100 ft
---- / hdg 108

(C) RW 19 length 5705 ft width 100 ft
---- / hdg 195

(D) RW 29 length 4023 ft width 100 ft
---- / hdg 288

Location; KSDY
Day. 23 / Time. 22.56 Zulu
* Altimeter: 30.12
* Temperature: 00° c. 32°f.
* Wind from: 180° Speed 03 kn.
Dewpoint: -01° c.
Visibility: 4 Statute Miles.
Clouds: Overcast 500 ft.
Conditions: Mist.

KSDY 232256Z AUTO 18003KT 4SM BR OVC005 00/M01 A3012 RMK AO2 SLP593 T00001011 FZRANO


Wind From 180°
Speed 03 kn.

 
 
jpsmedia worldairports.se 2020   terms of use